Time;durP1;ratioP1;P1;durP2;ratioP2;P2;SDS_P1;SDS_P2;PMS_P1;PMS_P2;Temp;Humidity;BMP_temperature;BMP_pressure;BME280_temperature;BME280_humidity;BME280_pressure;Samples;Min_cycle;Max_cycle;Signal;HPM_P1;HPM_P2
2023/04/06 00:01:57;;;;;;;;;26.00;21.00;;;;;;;;5074681;27;45496;-58
2023/04/06 00:04:22;;;;;;;;;29.00;21.33;;;;;;;;5073433;27;45517;-58
2023/04/06 00:06:47;;;;;;;;;20.33;17.00;;;;;;;;5074529;27;45476;-58
2023/04/06 00:09:12;;;;;;;;;17.00;17.00;;;;;;;;5074489;27;45533;-58
2023/04/06 00:11:38;;;;;;;;;19.67;19.67;;;;;;;;5074835;28;45403;-58
2023/04/06 00:14:03;;;;;;;;;18.33;17.67;;;;;;;;5073190;27;45433;-58
2023/04/06 00:16:28;;;;;;;;;18.00;18.00;;;;;;;;5074413;27;45433;-58
2023/04/06 00:18:53;;;;;;;;;23.67;21.00;;;;;;;;5074890;27;45533;-58
2023/04/06 00:21:18;;;;;;;;;21.67;21.33;;;;;;;;5074803;27;45489;-58
2023/04/06 00:23:44;;;;;;;;;23.67;18.33;;;;;;;;5074801;27;45414;-58
2023/04/06 00:26:10;;;;;;;;;20.33;20.00;;;;;;;;5074490;27;45937;-58
2023/04/06 00:28:35;;;;;;;;;19.33;19.33;;;;;;;;5074300;27;45492;-58
2023/04/06 00:31:00;;;;;;;;;19.00;19.00;;;;;;;;5074335;28;45596;-58
2023/04/06 00:33:26;;;;;;;;;18.33;18.33;;;;;;;;5072962;27;45450;-58
2023/04/06 00:35:51;;;;;;;;;20.00;20.00;;;;;;;;5074227;27;45996;-57
2023/04/06 00:38:17;;;;;;;;;17.33;17.33;;;;;;;;5074118;27;45533;-58
2023/04/06 00:40:45;;;;;;;;;18.00;17.00;;;;;;;;5074336;27;45509;-58
2023/04/06 00:43:11;;;;;;;;;24.33;20.00;;;;;;;;5074323;27;45536;-58
2023/04/06 00:45:37;;;;;;;;;25.33;20.00;;;;;;;;5073889;27;45752;-58
2023/04/06 00:48:03;;;;;;;;;20.33;20.00;;;;;;;;5074203;28;45541;-58
2023/04/06 00:50:28;;;;;;;;;24.00;22.75;;;;;;;;5074187;27;45549;-58
2023/04/06 00:52:54;;;;;;;;;23.67;22.00;;;;;;;;5074358;28;45583;-58
2023/04/06 00:55:19;;;;;;;;;24.25;21.25;;;;;;;;5074011;28;46419;-58
2023/04/06 00:57:45;;;;;;;;;23.33;22.00;;;;;;;;5074128;27;45408;-57
2023/04/06 01:00:11;;;;;;;;;25.33;25.33;;;;;;;;5074144;27;45480;-58
2023/04/06 01:02:37;;;;;;;;;23.00;20.67;;;;;;;;5073192;28;45548;-58
2023/04/06 01:05:02;;;;;;;;;23.50;23.50;;;;;;;;5071986;28;48221;-58
2023/04/06 01:07:27;;;;;;;;;26.00;22.33;;;;;;;;5073247;27;45646;-58
2023/04/06 01:09:53;;;;;;;;;28.00;22.50;;;;;;;;5073837;27;45507;-58
2023/04/06 01:12:20;;;;;;;;;19.33;17.67;;;;;;;;5073600;27;45505;-58
2023/04/06 01:14:46;;;;;;;;;23.67;22.67;;;;;;;;5073946;27;46158;-58
2023/04/06 01:17:11;;;;;;;;;22.67;20.00;;;;;;;;5073607;27;45500;-58
2023/04/06 01:19:36;;;;;;;;;24.67;20.00;;;;;;;;5073645;27;45420;-58
2023/04/06 01:22:01;;;;;;;;;24.67;24.33;;;;;;;;5073850;27;45518;-58
2023/04/06 01:24:26;;;;;;;;;24.75;22.75;;;;;;;;5073478;27;45498;-59
2023/04/06 01:26:52;;;;;;;;;26.50;23.00;;;;;;;;5073759;27;45539;-58
2023/04/06 01:29:17;;;;;;;;;25.50;23.75;;;;;;;;5073649;28;45520;-58
2023/04/06 01:31:42;;;;;;;;;24.00;21.33;;;;;;;;5073399;27;45566;-58
2023/04/06 01:34:07;;;;;;;;;24.00;22.33;;;;;;;;5073692;27;45796;-58
2023/04/06 01:36:33;;;;;;;;;22.33;20.33;;;;;;;;5073136;27;45533;-58
2023/04/06 01:38:58;;;;;;;;;18.67;18.67;;;;;;;;5072204;27;45482;-58
2023/04/06 01:41:23;;;;;;;;;26.33;20.33;;;;;;;;5073599;28;45592;-58
2023/04/06 01:43:49;;;;;;;;;24.00;23.00;;;;;;;;5073027;27;45739;-58
2023/04/06 01:46:15;;;;;;;;;28.25;26.50;;;;;;;;5073411;28;45475;-58
2023/04/06 01:48:40;;;;;;;;;23.00;20.00;;;;;;;;5073066;28;45516;-58
2023/04/06 01:51:05;;;;;;;;;24.75;24.75;;;;;;;;5073539;27;45510;-58
2023/04/06 01:53:30;;;;;;;;;26.75;25.75;;;;;;;;5072976;27;45570;-58
2023/04/06 01:55:56;;;;;;;;;22.00;21.75;;;;;;;;5073416;28;45487;-58
2023/04/06 01:58:21;;;;;;;;;22.00;20.00;;;;;;;;5073294;27;45544;-58
2023/04/06 02:00:46;;;;;;;;;25.00;24.50;;;;;;;;5073058;27;45500;-58
2023/04/06 02:03:11;;;;;;;;;26.00;23.67;;;;;;;;5073008;27;46012;-58
2023/04/06 02:05:37;;;;;;;;;26.00;22.00;;;;;;;;5072914;27;45470;-58
2023/04/06 02:08:05;;;;;;;;;22.67;21.00;;;;;;;;5073286;27;45425;-59
2023/04/06 02:10:31;;;;;;;;;28.50;25.00;;;;;;;;5073097;28;45567;-56
2023/04/06 02:12:58;;;;;;;;;23.25;22.50;;;;;;;;5072843;28;45516;-58
2023/04/06 02:15:23;;;;;;;;;23.25;21.50;;;;;;;;5073167;28;45535;-58
2023/04/06 02:17:48;;;;;;;;;25.00;25.00;;;;;;;;5073025;27;45485;-58
2023/04/06 02:20:14;;;;;;;;;23.50;22.00;;;;;;;;5074232;27;45441;-58
2023/04/06 02:22:39;;;;;;;;;20.00;19.00;;;;;;;;5074427;27;45460;-58
2023/04/06 02:25:04;;;;;;;;;27.00;21.50;;;;;;;;5076549;27;45453;-58
2023/04/06 02:27:30;;;;;;;;;24.00;23.50;;;;;;;;5076327;27;45449;-58
2023/04/06 02:29:55;;;;;;;;;26.25;25.50;;;;;;;;5076235;27;45723;-58
2023/04/06 02:32:20;;;;;;;;;26.50;23.25;;;;;;;;5074550;27;48567;-58
2023/04/06 02:34:45;;;;;;;;;28.00;25.75;;;;;;;;5076215;27;46390;-58
2023/04/06 02:37:11;;;;;;;;;22.75;21.75;;;;;;;;5076447;27;45482;-58
2023/04/06 02:39:36;;;;;;;;;23.50;23.50;;;;;;;;5075022;28;45445;-59
2023/04/06 02:42:01;;;;;;;;;26.50;25.25;;;;;;;;5076402;27;45654;-59
2023/04/06 02:44:26;;;;;;;;;24.50;23.25;;;;;;;;5076259;27;45589;-58
2023/04/06 02:46:51;;;;;;;;;24.75;22.00;;;;;;;;5076183;27;45643;-58
2023/04/06 02:49:17;;;;;;;;;27.00;24.50;;;;;;;;5075954;27;45492;-58
2023/04/06 02:51:42;;;;;;;;;26.00;23.50;;;;;;;;5075812;27;45484;-58
2023/04/06 02:54:07;;;;;;;;;24.00;24.00;;;;;;;;5076106;27;45635;-58
2023/04/06 02:56:32;;;;;;;;;22.25;22.25;;;;;;;;5076048;27;45735;-58
2023/04/06 02:58:57;;;;;;;;;26.50;24.75;;;;;;;;5075927;27;45629;-58
2023/04/06 03:01:23;;;;;;;;;27.25;24.75;;;;;;;;5075956;27;45537;-58
2023/04/06 03:03:48;;;;;;;;;26.33;24.00;;;;;;;;5075394;27;45475;-58
2023/04/06 03:06:13;;;;;;;;;25.75;23.50;;;;;;;;5076088;27;45485;-58
2023/04/06 03:08:38;;;;;;;;;24.50;23.75;;;;;;;;5075414;27;45558;-58
2023/04/06 03:11:04;;;;;;;;;25.50;24.25;;;;;;;;5075337;27;45515;-58
2023/04/06 03:13:29;;;;;;;;;28.75;24.75;;;;;;;;5075792;27;45425;-58
2023/04/06 03:15:54;;;;;;;;;22.75;21.75;;;;;;;;5075401;27;45549;-58
2023/04/06 03:18:23;;;;;;;;;22.33;22.33;;;;;;;;5075628;27;45442;-58
2023/04/06 03:20:49;;;;;;;;;22.50;20.50;;;;;;;;5075446;27;45547;-58
2023/04/06 03:23:14;;;;;;;;;26.25;24.50;;;;;;;;5075275;27;45496;-58
2023/04/06 03:25:39;;;;;;;;;21.33;19.00;;;;;;;;5075663;27;45445;-58
2023/04/06 03:28:05;;;;;;;;;23.75;21.25;;;;;;;;5075459;27;45382;-58
2023/04/06 03:30:30;;;;;;;;;27.25;25.50;;;;;;;;5075095;27;45982;-58
2023/04/06 03:32:55;;;;;;;;;22.00;22.00;;;;;;;;5075017;27;45492;-58
2023/04/06 03:35:20;;;;;;;;;22.25;21.00;;;;;;;;5075610;27;45528;-58
2023/04/06 03:37:45;;;;;;;;;28.25;24.25;;;;;;;;5075225;27;45472;-58
2023/04/06 03:40:11;;;;;;;;;27.25;26.00;;;;;;;;5075220;27;45601;-58
2023/04/06 03:42:36;;;;;;;;;25.00;23.50;;;;;;;;5075384;28;45481;-58
2023/04/06 03:45:01;;;;;;;;;23.75;22.75;;;;;;;;5075224;27;45488;-58
2023/04/06 03:47:26;;;;;;;;;23.67;23.33;;;;;;;;5075142;27;45551;-58
2023/04/06 03:49:52;;;;;;;;;27.50;24.25;;;;;;;;5073476;27;46105;-58
2023/04/06 03:52:17;;;;;;;;;25.50;21.00;;;;;;;;5073259;28;45441;-58
2023/04/06 03:54:42;;;;;;;;;25.00;22.25;;;;;;;;5075133;27;45505;-58
2023/04/06 03:57:07;;;;;;;;;26.33;24.00;;;;;;;;5074658;27;45468;-58
2023/04/06 03:59:33;;;;;;;;;23.00;20.67;;;;;;;;5074935;27;45984;-58
2023/04/06 04:01:58;;;;;;;;;28.50;24.75;;;;;;;;5074669;27;45463;-58
2023/04/06 04:04:23;;;;;;;;;17.50;15.50;;;;;;;;5074909;27;45461;-58
2023/04/06 04:06:48;;;;;;;;;28.75;26.50;;;;;;;;5074877;27;45579;-59
2023/04/06 04:09:13;;;;;;;;;25.25;23.00;;;;;;;;5074686;28;45492;-58
2023/04/06 04:11:39;;;;;;;;;22.67;20.67;;;;;;;;5074838;28;45391;-58
2023/04/06 04:14:04;;;;;;;;;23.67;20.33;;;;;;;;5074303;27;45470;-58
2023/04/06 04:16:30;;;;;;;;;27.67;24.00;;;;;;;;5074859;27;45611;-58
2023/04/06 04:18:55;;;;;;;;;24.25;21.50;;;;;;;;5074845;28;45929;-58
2023/04/06 04:21:20;;;;;;;;;26.50;21.00;;;;;;;;5074696;28;45561;-58
2023/04/06 04:23:46;;;;;;;;;28.00;25.75;;;;;;;;5073025;28;45525;-58
2023/04/06 04:26:11;;;;;;;;;29.00;25.00;;;;;;;;5074798;27;45520;-58
2023/04/06 04:28:36;;;;;;;;;24.00;19.67;;;;;;;;5074220;27;45556;-58
2023/04/06 04:31:01;;;;;;;;;25.50;25.50;;;;;;;;5073918;27;46162;-58
2023/04/06 04:33:27;;;;;;;;;23.33;21.33;;;;;;;;5074421;28;45519;-59
2023/04/06 04:35:52;;;;;;;;;20.00;19.67;;;;;;;;5074002;27;45435;-58
2023/04/06 04:38:17;;;;;;;;;19.33;19.33;;;;;;;;5074019;27;45565;-58
2023/04/06 04:40:42;;;;;;;;;19.00;19.00;;;;;;;;5074229;27;45580;-58
2023/04/06 04:43:08;;;;;;;;;22.33;21.33;;;;;;;;5073367;27;45413;-58
2023/04/06 04:45:33;;;;;;;;;25.00;23.33;;;;;;;;5074335;27;45537;-58
2023/04/06 04:47:58;;;;;;;;;21.00;20.00;;;;;;;;5073805;27;46063;-58
2023/04/06 04:50:23;;;;;;;;;24.67;23.00;;;;;;;;5074149;27;45469;-58
2023/04/06 04:52:49;;;;;;;;;19.67;19.67;;;;;;;;5074039;27;45480;-57
2023/04/06 04:55:14;;;;;;;;;19.25;19.25;;;;;;;;5073897;27;45477;-58
2023/04/06 04:57:39;;;;;;;;;25.25;22.50;;;;;;;;5073765;27;45531;-56
2023/04/06 05:00:05;;;;;;;;;20.33;20.00;;;;;;;;5073518;27;45819;-57
2023/04/06 05:02:30;;;;;;;;;21.33;21.33;;;;;;;;5072450;27;45560;-58
2023/04/06 05:04:55;;;;;;;;;23.75;22.00;;;;;;;;5060503;27;45582;-57
2023/04/06 05:07:21;;;;;;;;;27.00;25.25;;;;;;;;5071901;27;46253;-56
2023/04/06 05:09:46;;;;;;;;;27.25;25.50;;;;;;;;5073726;27;45458;-57
2023/04/06 05:12:12;;;;;;;;;23.50;23.50;;;;;;;;5073651;27;45446;-57
2023/04/06 05:14:37;;;;;;;;;21.00;19.00;;;;;;;;5069324;28;45637;-57
2023/04/06 05:17:02;;;;;;;;;28.75;27.00;;;;;;;;5064956;28;45557;-57
2023/04/06 05:19:27;;;;;;;;;27.00;26.00;;;;;;;;5071929;28;45511;-58
2023/04/06 05:21:53;;;;;;;;;22.00;20.25;;;;;;;;5062985;28;45503;-57
2023/04/06 05:24:18;;;;;;;;;19.25;19.00;;;;;;;;5068934;27;45493;-58
2023/04/06 05:26:43;;;;;;;;;28.00;25.25;;;;;;;;5070357;28;46079;-59
2023/04/06 05:29:10;;;;;;;;;20.75;19.50;;;;;;;;5082226;27;45528;-58
2023/04/06 05:31:36;;;;;;;;;25.75;20.75;;;;;;;;5083697;27;45874;-58
2023/04/06 05:34:01;;;;;;;;;19.75;19.75;;;;;;;;5073759;27;45469;-57
2023/04/06 05:36:26;;;;;;;;;20.75;17.00;;;;;;;;5074448;27;46306;-57
2023/04/06 05:38:52;;;;;;;;;28.75;25.25;;;;;;;;5071762;27;45413;-58
2023/04/06 05:41:17;;;;;;;;;20.50;19.75;;;;;;;;5073606;27;45545;-56
2023/04/06 05:43:43;;;;;;;;;21.00;18.67;;;;;;;;5073339;28;45579;-56
2023/04/06 05:46:08;;;;;;;;;21.25;20.25;;;;;;;;5072018;28;45577;-57
2023/04/06 05:48:33;;;;;;;;;17.75;16.50;;;;;;;;5057722;28;45551;-58
2023/04/06 05:50:59;;;;;;;;;19.50;19.50;;;;;;;;5070429;27;45462;-58
2023/04/06 05:53:26;;;;;;;;;21.50;21.50;;;;;;;;5071633;27;45477;-58
2023/04/06 05:55:51;;;;;;;;;17.00;17.00;;;;;;;;5073058;27;45435;-58
2023/04/06 05:58:17;;;;;;;;;22.75;18.50;;;;;;;;5072329;27;45574;-58
2023/04/06 06:00:42;;;;;;;;;24.75;22.75;;;;;;;;5076671;27;45523;-58
2023/04/06 06:03:08;;;;;;;;;20.50;20.50;;;;;;;;5065667;28;45667;-58
2023/04/06 06:05:33;;;;;;;;;20.00;18.00;;;;;;;;5075512;27;45491;-58
2023/04/06 06:08:01;;;;;;;;;27.75;23.00;;;;;;;;5076380;27;45419;-59
2023/04/06 06:10:27;;;;;;;;;22.25;19.25;;;;;;;;5076757;27;45516;-59
2023/04/06 06:12:53;;;;;;;;;18.25;17.75;;;;;;;;5074350;27;45500;-59
2023/04/06 06:15:18;;;;;;;;;21.75;21.75;;;;;;;;5076220;27;45591;-58
2023/04/06 06:17:43;;;;;;;;;22.50;20.50;;;;;;;;5074685;27;45642;-60
2023/04/06 06:20:09;;;;;;;;;20.75;17.50;;;;;;;;5070458;27;45612;-67
2023/04/06 06:22:34;;;;;;;;;21.75;19.00;;;;;;;;5075540;27;45460;-66
2023/04/06 06:24:59;;;;;;;;;21.25;18.75;;;;;;;;5076229;27;45559;-58
2023/04/06 06:27:25;;;;;;;;;20.50;20.00;;;;;;;;5075759;27;45614;-58
2023/04/06 06:29:50;;;;;;;;;27.00;24.75;;;;;;;;5068013;27;45577;-55
2023/04/06 06:32:15;;;;;;;;;24.25;24.25;;;;;;;;5076327;27;45452;-58
2023/04/06 06:34:41;;;;;;;;;22.75;21.00;;;;;;;;5076041;27;46292;-58
2023/04/06 06:37:06;;;;;;;;;18.67;18.67;;;;;;;;5075654;27;45464;-57
2023/04/06 06:39:31;;;;;;;;;26.75;23.25;;;;;;;;5075723;27;46103;-57
2023/04/06 06:41:56;;;;;;;;;20.33;20.33;;;;;;;;5075654;27;45536;-57
2023/04/06 06:44:21;;;;;;;;;25.50;25.00;;;;;;;;5074681;27;46109;-57
2023/04/06 06:46:47;;;;;;;;;22.25;22.00;;;;;;;;5073378;27;45548;-57
2023/04/06 06:49:14;;;;;;;;;21.75;20.00;;;;;;;;5075492;27;45431;-57
2023/04/06 06:51:39;;;;;;;;;27.25;25.25;;;;;;;;5075175;27;45654;-57
2023/04/06 06:54:04;;;;;;;;;25.75;23.25;;;;;;;;5075007;27;46526;-57
2023/04/06 06:56:29;;;;;;;;;24.00;23.00;;;;;;;;5075042;27;45551;-57
2023/04/06 06:58:55;;;;;;;;;28.50;25.75;;;;;;;;5075462;27;45709;-57
2023/04/06 07:01:20;;;;;;;;;24.00;23.25;;;;;;;;5073927;27;45476;-57
2023/04/06 07:03:45;;;;;;;;;26.50;26.50;;;;;;;;5074844;27;45634;-57
2023/04/06 07:06:10;;;;;;;;;22.00;22.00;;;;;;;;5073226;27;45622;-57
2023/04/06 07:08:35;;;;;;;;;21.50;21.25;;;;;;;;5074942;27;45571;-57
2023/04/06 07:11:01;;;;;;;;;24.75;24.00;;;;;;;;5075053;27;45528;-58
2023/04/06 07:13:27;;;;;;;;;22.00;22.00;;;;;;;;5074726;27;45469;-57
2023/04/06 07:16:11;;;;;;;;;27.00;24.50;;;;;;;;5074733;27;45540;-57
2023/04/06 07:18:36;;;;;;;;;24.75;21.75;;;;;;;;5074777;27;45508;-58
2023/04/06 07:21:01;;;;;;;;;25.25;22.75;;;;;;;;5074694;27;45399;-58
2023/04/06 07:23:26;;;;;;;;;23.25;22.00;;;;;;;;5074577;27;45495;-58
2023/04/06 07:25:53;;;;;;;;;28.25;26.25;;;;;;;;5074251;27;45394;-58
2023/04/06 07:28:19;;;;;;;;;23.75;23.75;;;;;;;;5074608;27;45552;-58
2023/04/06 07:30:44;;;;;;;;;24.50;21.75;;;;;;;;5074521;27;45599;-56
2023/04/06 07:33:09;;;;;;;;;20.75;20.75;;;;;;;;5074186;27;45465;-58
2023/04/06 07:35:36;;;;;;;;;23.75;23.75;;;;;;;;5074699;27;45518;-58
2023/04/06 07:38:01;;;;;;;;;23.00;23.00;;;;;;;;5073028;27;45503;-58
2023/04/06 07:40:26;;;;;;;;;18.25;15.00;;;;;;;;5073051;27;45617;-58
2023/04/06 07:42:52;;;;;;;;;20.25;18.25;;;;;;;;5074165;27;45489;-59
2023/04/06 07:45:17;;;;;;;;;25.00;21.75;;;;;;;;5074493;27;45428;-58
2023/04/06 07:47:42;;;;;;;;;24.00;21.25;;;;;;;;5074548;27;45478;-58
2023/04/06 07:50:08;;;;;;;;;22.50;19.75;;;;;;;;5074374;27;45476;-58
2023/04/06 07:52:33;;;;;;;;;26.00;24.50;;;;;;;;5074169;27;45939;-59
2023/04/06 07:54:59;;;;;;;;;27.25;24.00;;;;;;;;5074207;27;45468;-58
2023/04/06 07:57:24;;;;;;;;;23.00;23.00;;;;;;;;5074404;27;45547;-58
2023/04/06 07:59:49;;;;;;;;;22.25;19.75;;;;;;;;5074297;27;45453;-58
2023/04/06 08:02:14;;;;;;;;;25.00;24.00;;;;;;;;5073970;27;45981;-58
2023/04/06 08:04:40;;;;;;;;;25.00;24.00;;;;;;;;5073904;27;45570;-58
2023/04/06 08:07:05;;;;;;;;;23.25;23.00;;;;;;;;5074015;27;45396;-58
2023/04/06 08:09:30;;;;;;;;;29.00;25.75;;;;;;;;5074277;27;45425;-58
2023/04/06 08:11:55;;;;;;;;;26.00;24.50;;;;;;;;5073876;27;45484;-58
2023/04/06 08:14:21;;;;;;;;;25.50;24.25;;;;;;;;5073658;27;45486;-58
2023/04/06 08:16:46;;;;;;;;;25.00;22.75;;;;;;;;5073819;27;45559;-59
2023/04/06 08:19:11;;;;;;;;;26.50;25.75;;;;;;;;5071550;28;45561;-58
2023/04/06 08:21:36;;;;;;;;;29.50;26.75;;;;;;;;5073878;28;45494;-59
2023/04/06 08:24:02;;;;;;;;;29.50;27.00;;;;;;;;5073958;28;45473;-59
2023/04/06 08:26:27;;;;;;;;;26.50;25.25;;;;;;;;5072396;27;45467;-59
2023/04/06 08:28:53;;;;;;;;;25.50;25.25;;;;;;;;5073851;27;45608;-57
2023/04/06 08:31:18;;;;;;;;;27.25;27.25;;;;;;;;5072938;27;46475;-56
2023/04/06 08:33:43;;;;;;;;;29.00;28.00;;;;;;;;5071653;27;45504;-58
2023/04/06 08:36:09;;;;;;;;;28.50;26.50;;;;;;;;5073570;27;45439;-57
2023/04/06 08:38:35;;;;;;;;;30.00;27.50;;;;;;;;5073478;27;45642;-57
2023/04/06 08:41:06;;;;;;;;;31.00;27.50;;;;;;;;5073309;27;45495;-56
2023/04/06 08:43:31;;;;;;;;;28.75;27.50;;;;;;;;5073429;27;45492;-57
2023/04/06 08:45:58;;;;;;;;;26.75;25.50;;;;;;;;5073368;27;45482;-57
2023/04/06 08:48:24;;;;;;;;;29.25;27.50;;;;;;;;5073252;28;45468;-57
2023/04/06 08:50:49;;;;;;;;;36.00;33.50;;;;;;;;5073118;27;45471;-56
2023/04/06 08:53:15;;;;;;;;;29.25;28.75;;;;;;;;5073051;27;45502;-56
2023/04/06 08:55:42;;;;;;;;;30.00;30.00;;;;;;;;5073557;27;45544;-57
2023/04/06 08:58:08;;;;;;;;;29.75;27.25;;;;;;;;5073143;27;45577;-56
2023/04/06 09:00:36;;;;;;;;;30.50;30.25;;;;;;;;5073180;28;45856;-56
2023/04/06 09:03:03;;;;;;;;;30.75;29.75;;;;;;;;5073055;27;45483;-59
2023/04/06 09:05:28;;;;;;;;;30.50;29.75;;;;;;;;5071316;28;45467;-59
2023/04/06 09:07:53;;;;;;;;;31.00;29.50;;;;;;;;5072850;27;45648;-58
2023/04/06 09:10:20;;;;;;;;;27.25;24.75;;;;;;;;5073052;28;45434;-57
2023/04/06 09:12:46;;;;;;;;;27.75;23.75;;;;;;;;5073086;27;45497;-57
2023/04/06 09:15:21;;;;;;;;;28.50;27.50;;;;;;;;5073082;28;45558;-56
2023/04/06 09:17:46;;;;;;;;;29.00;28.25;;;;;;;;5073011;28;45477;-56
2023/04/06 09:20:12;;;;;;;;;31.25;27.25;;;;;;;;5072694;27;45507;-56
2023/04/06 09:22:37;;;;;;;;;32.25;30.00;;;;;;;;5072616;27;45584;-56
2023/04/06 09:25:03;;;;;;;;;32.25;31.50;;;;;;;;5073151;27;45487;-59
2023/04/06 09:27:32;;;;;;;;;30.00;26.50;;;;;;;;5072962;27;45486;-59
2023/04/06 09:30:13;;;;;;;;;29.75;28.75;;;;;;;;5072282;27;46205;-56
2023/04/06 09:32:46;;;;;;;;;21.75;19.25;;;;;;;;5072539;27;45492;-57
2023/04/06 09:35:12;;;;;;;;;31.50;28.00;;;;;;;;5072994;27;45438;-57
2023/04/06 09:37:37;;;;;;;;;23.75;21.75;;;;;;;;5073023;28;45603;-57
2023/04/06 09:40:06;;;;;;;;;22.50;21.75;;;;;;;;5072760;27;46140;-57
2023/04/06 09:42:31;;;;;;;;;23.00;19.25;;;;;;;;5072800;27;45437;-57
2023/04/06 09:44:56;;;;;;;;;31.75;26.50;;;;;;;;5072844;27;45486;-56
2023/04/06 09:47:23;;;;;;;;;27.00;23.00;;;;;;;;5072630;27;45562;-57
2023/04/06 09:49:49;;;;;;;;;22.50;20.25;;;;;;;;5072328;27;45512;-57
2023/04/06 09:52:16;;;;;;;;;21.00;21.00;;;;;;;;5072359;27;45497;-57
2023/04/06 09:54:42;;;;;;;;;18.33;16.00;;;;;;;;5072652;27;45601;-57
2023/04/06 09:57:14;;;;;;;;;21.00;19.00;;;;;;;;5072413;27;45505;-56
2023/04/06 09:59:47;;;;;;;;;18.00;16.67;;;;;;;;5072440;27;45500;-57
2023/04/06 10:02:26;;;;;;;;;18.50;17.25;;;;;;;;5072271;27;45501;-58
2023/04/06 10:05:10;;;;;;;;;17.33;16.67;;;;;;;;5072458;27;45493;-57
2023/04/06 10:07:36;;;;;;;;;16.50;15.75;;;;;;;;5072365;27;45541;-57
2023/04/06 10:10:02;;;;;;;;;17.33;15.67;;;;;;;;5072116;27;46359;-58
2023/04/06 10:12:27;;;;;;;;;17.33;16.33;;;;;;;;5071808;27;45659;-57
2023/04/06 10:14:53;;;;;;;;;15.33;14.33;;;;;;;;5072084;27;45644;-57
2023/04/06 10:17:18;;;;;;;;;15.67;15.33;;;;;;;;5072108;27;45732;-57
2023/04/06 10:19:55;;;;;;;;;15.67;14.67;;;;;;;;5071980;28;45655;-57
2023/04/06 10:22:29;;;;;;;;;19.67;18.33;;;;;;;;5072234;27;45433;-57
2023/04/06 10:24:54;;;;;;;;;15.33;14.67;;;;;;;;5072465;27;46119;-56
2023/04/06 10:27:29;;;;;;;;;18.33;17.33;;;;;;;;5072328;27;45630;-61
2023/04/06 10:30:00;;;;;;;;;16.67;15.00;;;;;;;;5071826;27;45418;-58
2023/04/06 10:32:38;;;;;;;;;16.00;15.33;;;;;;;;5071875;27;45535;-57
2023/04/06 10:35:10;;;;;;;;;13.00;13.00;;;;;;;;5071852;27;45511;-58
2023/04/06 10:37:48;;;;;;;;;16.67;16.67;;;;;;;;5072156;27;45607;-57
2023/04/06 10:40:23;;;;;;;;;13.67;12.33;;;;;;;;5071443;27;45633;-58
2023/04/06 10:42:49;;;;;;;;;12.67;12.67;;;;;;;;5075238;27;45552;-58
2023/04/06 10:45:24;;;;;;;;;14.33;13.00;;;;;;;;5075480;27;45410;-58
2023/04/06 10:47:51;;;;;;;;;17.33;13.33;;;;;;;;5075450;27;45439;-58
2023/04/06 10:50:17;;;;;;;;;15.67;13.00;;;;;;;;5074807;27;46115;-57
2023/04/06 10:52:48;;;;;;;;;13.33;13.33;;;;;;;;5075140;27;45472;-58
2023/04/06 10:55:14;;;;;;;;;13.00;13.00;;;;;;;;5074918;27;45568;-58
2023/04/06 10:57:40;;;;;;;;;13.33;12.67;;;;;;;;5075268;27;45584;-57
2023/04/06 11:00:05;;;;;;;;;11.33;11.33;;;;;;;;5074845;27;46321;-57
2023/04/06 11:02:31;;;;;;;;;10.67;10.33;;;;;;;;5075087;27;45472;-58
2023/04/06 11:04:57;;;;;;;;;15.00;15.00;;;;;;;;5075061;27;45529;-58
2023/04/06 11:07:23;;;;;;;;;10.00;10.00;;;;;;;;5075103;27;45510;-58
2023/04/06 11:09:49;;;;;;;;;13.33;12.33;;;;;;;;5075004;27;46039;-58
2023/04/06 11:12:27;;;;;;;;;7.67;7.67;;;;;;;;5074864;27;45514;-57
2023/04/06 11:15:00;;;;;;;;;14.00;11.33;;;;;;;;5074991;27;45371;-57
2023/04/06 11:17:26;;;;;;;;;10.33;10.33;;;;;;;;5074924;27;45404;-58
2023/04/06 11:19:51;;;;;;;;;12.00;11.33;;;;;;;;5074727;27;46205;-58
2023/04/06 11:22:16;;;;;;;;;10.00;9.00;;;;;;;;5075027;27;45552;-58
2023/04/06 11:24:42;;;;;;;;;9.67;9.33;;;;;;;;5074846;27;45468;-58
2023/04/06 11:27:07;;;;;;;;;14.00;10.33;;;;;;;;5074787;27;45539;-58
2023/04/06 11:29:33;;;;;;;;;11.67;11.67;;;;;;;;5074548;27;45529;-58
2023/04/06 11:31:59;;;;;;;;;10.33;10.33;;;;;;;;5071488;27;45584;-58
2023/04/06 11:34:27;;;;;;;;;10.67;9.33;;;;;;;;5068710;27;45540;-58
2023/04/06 11:36:57;;;;;;;;;8.00;6.67;;;;;;;;5075097;27;45618;-57
2023/04/06 11:39:26;;;;;;;;;8.00;8.00;;;;;;;;5070942;27;45524;-54
2023/04/06 11:41:52;;;;;;;;;8.67;8.00;;;;;;;;5061326;27;45528;-56
2023/04/06 11:44:32;;;;;;;;;7.33;7.33;;;;;;;;5073852;27;45520;-57
2023/04/06 11:46:57;;;;;;;;;7.67;6.33;;;;;;;;5074058;28;45597;-57
2023/04/06 11:49:26;;;;;;;;;14.00;12.00;;;;;;;;5068464;28;47132;-57
2023/04/06 11:51:51;;;;;;;;;6.67;6.00;;;;;;;;5073789;27;45521;-56
2023/04/06 11:54:17;;;;;;;;;9.00;7.00;;;;;;;;5059053;28;45622;-57
2023/04/06 11:56:46;;;;;;;;;8.67;7.00;;;;;;;;5060198;28;45412;-56
2023/04/06 11:59:11;;;;;;;;;7.00;5.67;;;;;;;;5075870;28;45495;-56
2023/04/06 12:01:44;;;;;;;;;9.67;9.67;;;;;;;;5069883;28;45536;-57
2023/04/06 12:04:09;;;;;;;;;6.33;5.00;;;;;;;;5075949;27;45461;-57
2023/04/06 12:06:35;;;;;;;;;4.00;4.00;;;;;;;;5074444;27;45484;-57
2023/04/06 12:09:00;;;;;;;;;4.33;4.33;;;;;;;;5074209;28;46993;-60
2023/04/06 12:11:25;;;;;;;;;5.00;5.00;;;;;;;;5074975;27;45632;-56
2023/04/06 12:13:50;;;;;;;;;5.00;5.00;;;;;;;;5074455;27;45832;-57
2023/04/06 12:16:16;;;;;;;;;6.33;6.33;;;;;;;;5075610;27;45563;-55
2023/04/06 12:18:41;;;;;;;;;5.00;5.00;;;;;;;;5075603;27;46411;-56
2023/04/06 12:21:06;;;;;;;;;5.33;5.33;;;;;;;;5075035;27;45420;-57
2023/04/06 12:23:32;;;;;;;;;7.00;7.00;;;;;;;;5074887;27;45503;-57
2023/04/06 12:25:57;;;;;;;;;6.00;6.00;;;;;;;;5075070;28;45543;-57
2023/04/06 12:28:26;;;;;;;;;4.00;3.00;;;;;;;;5074864;27;45547;-57
2023/04/06 12:30:51;;;;;;;;;4.33;3.00;;;;;;;;5074213;28;45465;-57
2023/04/06 12:33:17;;;;;;;;;2.33;2.00;;;;;;;;5074628;27;45429;-58
2023/04/06 12:35:42;;;;;;;;;3.67;3.67;;;;;;;;5073547;27;45574;-56
2023/04/06 12:38:07;;;;;;;;;4.67;4.67;;;;;;;;5074673;27;46039;-57
2023/04/06 12:40:36;;;;;;;;;3.33;2.00;;;;;;;;5075022;28;45465;-58
2023/04/06 12:43:01;;;;;;;;;3.00;3.00;;;;;;;;5074666;27;45539;-57
2023/04/06 12:45:26;;;;;;;;;5.00;3.67;;;;;;;;5074575;27;45540;-56
2023/04/06 12:47:51;;;;;;;;;3.00;3.00;;;;;;;;5073812;27;45465;-58
2023/04/06 12:50:16;;;;;;;;;4.00;4.00;;;;;;;;5074732;27;45415;-56
2023/04/06 12:52:42;;;;;;;;;4.00;3.00;;;;;;;;5073279;27;45450;-55
2023/04/06 12:55:07;;;;;;;;;4.00;4.00;;;;;;;;5074478;27;45526;-56
2023/04/06 12:57:32;;;;;;;;;2.00;2.00;;;;;;;;5074347;27;46166;-58
2023/04/06 12:59:58;;;;;;;;;4.00;3.33;;;;;;;;5072666;27;45457;-58
2023/04/06 13:02:23;;;;;;;;;4.00;4.00;;;;;;;;5074689;27;45524;-58
2023/04/06 13:04:49;;;;;;;;;4.00;3.00;;;;;;;;5074080;27;45376;-58
2023/04/06 13:07:15;;;;;;;;;3.67;3.33;;;;;;;;5074252;27;45428;-54
2023/04/06 13:09:40;;;;;;;;;2.33;2.33;;;;;;;;5074345;28;45433;-55
2023/04/06 13:12:05;;;;;;;;;3.00;3.00;;;;;;;;5074066;27;45498;-54
2023/04/06 13:14:31;;;;;;;;;3.67;1.00;;;;;;;;5074049;27;45422;-58
2023/04/06 13:16:57;;;;;;;;;3.00;3.00;;;;;;;;5074016;27;46212;-58
2023/04/06 13:19:22;;;;;;;;;3.33;3.33;;;;;;;;5073818;27;45504;-55
2023/04/06 13:21:47;;;;;;;;;2.00;2.00;;;;;;;;5074338;27;45475;-54
2023/04/06 13:24:14;;;;;;;;;2.00;2.00;;;;;;;;5074009;27;45780;-55
2023/04/06 13:26:39;;;;;;;;;1.00;1.00;;;;;;;;5072150;27;47187;-57
2023/04/06 13:29:04;;;;;;;;;2.00;2.00;;;;;;;;5073831;27;45481;-58
2023/04/06 13:31:30;;;;;;;;;3.00;3.00;;;;;;;;5073696;27;45402;-58
2023/04/06 13:33:55;;;;;;;;;2.33;2.00;;;;;;;;5074147;28;45533;-58
2023/04/06 13:36:20;;;;;;;;;3.33;3.33;;;;;;;;5073843;27;46495;-57
2023/04/06 13:38:46;;;;;;;;;2.33;2.00;;;;;;;;5074036;27;45474;-57
2023/04/06 13:41:20;;;;;;;;;2.67;2.67;;;;;;;;5074095;27;45482;-58
2023/04/06 13:43:45;;;;;;;;;2.00;2.00;;;;;;;;5074129;27;45694;-57
2023/04/06 13:46:11;;;;;;;;;2.67;2.67;;;;;;;;5071966;27;46425;-55
2023/04/06 13:48:36;;;;;;;;;3.00;3.00;;;;;;;;5073666;27;45413;-54
2023/04/06 13:51:12;;;;;;;;;3.00;3.00;;;;;;;;5074014;28;45485;-56
2023/04/06 13:53:37;;;;;;;;;2.67;2.67;;;;;;;;5073664;27;45444;-56
2023/04/06 13:56:02;;;;;;;;;3.67;3.67;;;;;;;;5073063;27;46109;-57
2023/04/06 13:58:27;;;;;;;;;3.33;2.33;;;;;;;;5073525;27;45447;-56
2023/04/06 14:00:53;;;;;;;;;2.67;2.67;;;;;;;;5073853;27;45445;-56
2023/04/06 14:03:18;;;;;;;;;2.00;2.00;;;;;;;;5073710;27;45460;-56
2023/04/06 14:05:44;;;;;;;;;4.00;3.33;;;;;;;;5073362;27;45555;-56
2023/04/06 14:08:09;;;;;;;;;3.33;3.33;;;;;;;;5073243;27;45465;-56
2023/04/06 14:10:39;;;;;;;;;1.00;1.00;;;;;;;;5073357;28;45529;-55
2023/04/06 14:13:05;;;;;;;;;3.00;2.00;;;;;;;;5073744;27;45489;-56
2023/04/06 14:15:30;;;;;;;;;1.00;1.00;;;;;;;;5073530;27;46035;-56